Terminal Aerodrome Forecast
Issued by NWS

Home | Current Version | Previous Version | Text Only | Print | Product List | Glossary On
Versions: 1 2 3 4 5 6 7 8 9 10 11 12 13 14 15 16 17 18 19 20 21 22
000
FTUS43 KPAH 191100
TAFCGI
TAF
KCGI 191137Z 1912/2012 00000KT 1/2SM FG VV002
      TEMPO 1912/1913 1 1/2SM BR SCT002
     FM191300 00000KT 4SM BR SKC
      TEMPO 1913/1914 1SM BR SCT002
     FM191400 22008KT P6SM SCT050 BKN250
     FM200000 21003KT P6SM SCT150=

USA.gov is the U.S. government's official web portal to all federal, state and local government web resources and services.